createdAt,value
2018-09-05T00:00:29.011Z,15.80
2018-09-05T00:02:56.255Z,15.80
2018-09-05T00:05:23.523Z,15.80
2018-09-05T00:07:50.806Z,15.70
2018-09-05T00:10:18.056Z,15.70
2018-09-05T00:12:45.306Z,15.80
2018-09-05T00:15:12.578Z,15.90
2018-09-05T00:17:40.465Z,15.80
2018-09-05T00:20:07.715Z,15.80
2018-09-05T00:22:35.102Z,15.70
2018-09-05T00:25:02.405Z,15.70
2018-09-05T00:27:29.633Z,15.60
2018-09-05T00:29:56.878Z,15.60
2018-09-05T00:32:24.183Z,15.60
2018-09-05T00:34:51.423Z,15.60
2018-09-05T00:37:18.715Z,15.60
2018-09-05T00:39:45.930Z,15.60
2018-09-05T00:42:13.299Z,15.60
2018-09-05T00:44:40.626Z,15.70
2018-09-05T00:47:07.931Z,15.60
2018-09-05T00:49:35.221Z,15.50
2018-09-05T00:52:02.570Z,15.50
2018-09-05T00:54:29.995Z,15.50
2018-09-05T00:56:57.238Z,15.50
2018-09-05T00:59:24.483Z,15.50
2018-09-05T01:01:51.763Z,15.40
2018-09-05T01:04:19.006Z,15.40
2018-09-05T01:06:46.263Z,15.30
2018-09-05T01:09:13.608Z,15.20
2018-09-05T01:11:40.899Z,15.10
2018-09-05T01:14:08.318Z,15.00
2018-09-05T01:16:35.534Z,14.70
2018-09-05T01:19:02.870Z,14.60
2018-09-05T01:21:30.970Z,14.60
2018-09-05T01:23:58.251Z,14.70
2018-09-05T01:26:25.887Z,14.70
2018-09-05T01:28:53.113Z,14.70
2018-09-05T01:31:20.354Z,14.60
2018-09-05T01:33:47.678Z,14.60
2018-09-05T01:36:15.507Z,14.50
2018-09-05T01:38:43.089Z,14.50
2018-09-05T01:41:10.821Z,14.50
2018-09-05T01:43:38.714Z,14.40
2018-09-05T01:46:06.039Z,14.40
2018-09-05T01:48:33.330Z,14.40
2018-09-05T01:51:00.622Z,14.40
2018-09-05T01:53:27.904Z,14.30
2018-09-05T01:55:55.150Z,14.30
2018-09-05T01:58:22.545Z,14.20
2018-09-05T02:00:49.774Z,14.30
2018-09-05T02:03:17.147Z,14.20
2018-09-05T02:05:44.480Z,14.10
2018-09-05T02:08:11.691Z,14.10
2018-09-05T02:10:38.955Z,14.10
2018-09-05T02:13:06.230Z,14.00
2018-09-05T02:15:33.502Z,14.00
2018-09-05T02:18:00.745Z,13.90
2018-09-05T02:20:28.103Z,13.90
2018-09-05T02:22:55.444Z,13.80
2018-09-05T02:25:22.678Z,13.80
2018-09-05T02:27:49.958Z,13.80
2018-09-05T02:30:17.183Z,13.70
2018-09-05T02:32:44.466Z,13.70
2018-09-05T02:35:11.715Z,13.70
2018-09-05T02:37:38.999Z,13.60
2018-09-05T02:40:06.584Z,13.60
2018-09-05T02:42:33.787Z,13.60
2018-09-05T02:45:01.142Z,13.60
2018-09-05T02:47:28.355Z,13.60
2018-09-05T02:49:55.632Z,13.50
2018-09-05T02:52:22.862Z,13.50
2018-09-05T02:54:50.256Z,13.50
2018-09-05T02:57:17.503Z,13.40
2018-09-05T02:59:45.894Z,13.40
2018-09-05T03:02:13.488Z,13.30
2018-09-05T03:04:40.784Z,13.30
2018-09-05T03:07:07.987Z,13.20
2018-09-05T03:09:35.298Z,13.20
2018-09-05T03:12:02.536Z,13.20
2018-09-05T03:14:29.779Z,13.20
2018-09-05T03:16:57.159Z,13.20
2018-09-05T03:19:24.406Z,13.20
2018-09-05T03:21:51.751Z,13.20
2018-09-05T03:24:18.977Z,13.20
2018-09-05T03:26:46.217Z,13.10
2018-09-05T03:29:13.481Z,13.10
2018-09-05T03:31:40.770Z,13.10
2018-09-05T03:34:07.981Z,13.10
2018-09-05T03:36:35.510Z,13.00
2018-09-05T03:39:03.988Z,13.00
2018-09-05T03:41:31.287Z,13.00
2018-09-05T03:43:58.579Z,12.90
2018-09-05T03:46:25.894Z,12.80
2018-09-05T03:48:53.160Z,12.80
2018-09-05T03:51:20.401Z,12.80
2018-09-05T03:53:47.803Z,12.70
2018-09-05T03:56:15.133Z,12.80
2018-09-05T03:58:42.478Z,12.70
2018-09-05T04:01:09.829Z,12.70
2018-09-05T04:03:37.067Z,12.70
2018-09-05T04:06:04.585Z,12.60
2018-09-05T04:08:31.943Z,12.60
2018-09-05T04:10:59.271Z,12.60
2018-09-05T04:13:26.635Z,12.60
2018-09-05T04:15:54.071Z,12.60
2018-09-05T04:18:21.466Z,12.50
2018-09-05T04:20:48.785Z,12.50
2018-09-05T04:23:16.110Z,12.40
2018-09-05T04:25:43.709Z,12.40
2018-09-05T04:28:10.942Z,12.40
2018-09-05T04:30:38.195Z,12.40
2018-09-05T04:33:05.567Z,12.40
2018-09-05T04:35:32.914Z,12.40
2018-09-05T04:38:00.292Z,12.40
2018-09-05T04:40:27.622Z,12.40
2018-09-05T04:42:54.999Z,12.40
2018-09-05T04:45:22.378Z,12.40
2018-09-05T04:47:49.669Z,12.30
2018-09-05T04:50:16.926Z,12.30
2018-09-05T04:52:44.412Z,12.30
2018-09-05T04:55:11.775Z,12.30
2018-09-05T04:57:39.119Z,12.20
2018-09-05T05:00:07.511Z,12.10
2018-09-05T05:02:34.866Z,12.20
2018-09-05T05:05:02.192Z,12.20
2018-09-05T05:07:29.490Z,12.20
2018-09-05T05:09:56.771Z,12.20
2018-09-05T05:12:24.174Z,12.30
2018-09-05T05:14:51.528Z,12.30
2018-09-05T05:17:18.883Z,12.40
2018-09-05T05:19:46.265Z,12.50
2018-09-05T05:22:13.546Z,12.60
2018-09-05T05:24:40.824Z,12.70
2018-09-05T05:27:08.067Z,12.70
2018-09-05T05:29:35.402Z,12.60
2018-09-05T05:32:02.790Z,12.70
2018-09-05T05:34:30.150Z,12.80
2018-09-05T05:36:57.503Z,12.90
2018-09-05T05:39:24.868Z,13.00
2018-09-05T05:41:52.233Z,13.20
2018-09-05T05:44:19.572Z,13.30
2018-09-05T05:46:46.851Z,13.40
2018-09-05T05:49:14.027Z,13.50
2018-09-05T05:51:41.440Z,13.60
2018-09-05T05:54:08.654Z,13.70
2018-09-05T05:56:35.965Z,13.80
2018-09-05T05:59:03.239Z,13.90
2018-09-05T06:01:30.484Z,14.00
2018-09-05T06:03:57.831Z,14.10
2018-09-05T06:06:25.125Z,14.30
2018-09-05T06:08:52.400Z,14.30
2018-09-05T06:11:19.670Z,14.30
2018-09-05T06:13:46.894Z,14.40
2018-09-05T06:16:14.230Z,14.40
2018-09-05T06:18:41.435Z,14.50
2018-09-05T06:21:08.785Z,14.50
2018-09-05T06:23:36.082Z,14.50
2018-09-05T06:26:03.444Z,14.60
2018-09-05T06:28:30.706Z,14.60
2018-09-05T06:30:57.996Z,14.70
2018-09-05T06:33:25.286Z,14.90
2018-09-05T06:35:52.504Z,14.90
2018-09-05T06:38:19.802Z,15.00
2018-09-05T06:40:47.018Z,15.20
2018-09-05T06:43:14.275Z,15.30
2018-09-05T06:45:41.571Z,15.40
2018-09-05T06:48:08.807Z,15.40
2018-09-05T06:50:36.082Z,15.60
2018-09-05T06:53:03.351Z,15.70
2018-09-05T06:55:30.610Z,15.80
2018-09-05T06:57:57.927Z,15.90
2018-09-05T07:00:25.184Z,15.90
2018-09-05T07:02:52.452Z,15.90
2018-09-05T07:05:19.754Z,16.00
2018-09-05T07:07:47.075Z,16.20
2018-09-05T07:10:14.359Z,16.30
2018-09-05T07:12:41.567Z,16.30
2018-09-05T07:15:08.844Z,16.40
2018-09-05T07:17:36.130Z,16.40
2018-09-05T07:20:03.403Z,16.50
2018-09-05T07:22:30.667Z,16.50
2018-09-05T07:24:57.979Z,16.70
2018-09-05T07:27:25.223Z,16.90
2018-09-05T07:29:52.691Z,16.90
2018-09-05T07:32:21.054Z,17.00
2018-09-05T07:34:48.339Z,17.00
2018-09-05T07:37:15.571Z,17.10
2018-09-05T07:39:42.814Z,17.10
2018-09-05T07:42:10.110Z,17.20
2018-09-05T07:44:37.426Z,17.30
2018-09-05T07:47:04.836Z,17.40
2018-09-05T07:49:32.087Z,17.70
2018-09-05T07:51:59.343Z,17.90
2018-09-05T07:54:26.593Z,18.10
2018-09-05T07:56:53.887Z,18.30
2018-09-05T07:59:21.174Z,18.50
2018-09-05T08:01:48.447Z,18.50
2018-09-05T08:04:15.702Z,18.60
2018-09-05T08:06:42.931Z,18.70
2018-09-05T08:09:11.267Z,18.90
2018-09-05T08:11:38.621Z,19.00
2018-09-05T08:14:06.368Z,19.10
2018-09-05T08:16:33.871Z,19.10
2018-09-05T08:19:01.206Z,19.20
2018-09-05T08:21:28.496Z,19.40
2018-09-05T08:23:55.707Z,19.30
2018-09-05T08:26:22.990Z,19.30
2018-09-05T08:28:50.322Z,19.30
2018-09-05T08:31:17.731Z,19.30
2018-09-05T08:33:45.015Z,19.40
2018-09-05T08:36:12.554Z,19.50
2018-09-05T08:38:39.617Z,19.60
2018-09-05T08:41:08.845Z,19.70
2018-09-05T08:43:36.629Z,19.80
2018-09-05T08:46:04.571Z,20.10
2018-09-05T08:48:31.753Z,20.40
2018-09-05T08:50:59.153Z,20.80
2018-09-05T08:53:26.397Z,20.90
2018-09-05T08:55:53.683Z,21.00
2018-09-05T08:58:21.045Z,21.10
2018-09-05T09:00:48.310Z,21.10
2018-09-05T09:03:15.562Z,21.20
2018-09-05T09:05:43.054Z,21.30
2018-09-05T09:08:10.669Z,21.20
2018-09-05T09:10:37.875Z,21.10
2018-09-05T09:13:05.162Z,21.10
2018-09-05T09:15:32.686Z,21.20
2018-09-05T09:18:00.432Z,21.30
2018-09-05T09:20:27.655Z,21.30
2018-09-05T09:22:54.910Z,21.40
2018-09-05T09:25:22.215Z,21.50
2018-09-05T09:27:49.483Z,21.60
2018-09-05T09:30:16.695Z,21.60
2018-09-05T09:32:44.018Z,21.80
2018-09-05T09:35:11.263Z,21.90
2018-09-05T09:37:38.801Z,21.90
2018-09-05T09:40:06.091Z,22.00
2018-09-05T09:42:33.335Z,22.00
2018-09-05T09:45:00.877Z,22.10
2018-09-05T09:47:28.074Z,22.10
2018-09-05T09:49:55.418Z,22.00
2018-09-05T09:52:23.137Z,21.90
2018-09-05T09:54:51.715Z,21.90
2018-09-05T09:57:19.110Z,22.00
2018-09-05T09:59:46.355Z,22.20
2018-09-05T10:02:20.460Z,22.40
2018-09-05T10:04:54.498Z,22.40
2018-09-05T10:07:27.413Z,22.40
2018-09-05T10:10:00.710Z,22.40
2018-09-05T10:12:33.527Z,22.40
2018-09-05T10:15:01.210Z,22.30
2018-09-05T10:17:35.986Z,22.30
2018-09-05T10:20:03.883Z,22.40
2018-09-05T10:22:31.820Z,22.20
2018-09-05T10:24:59.750Z,22.30
2018-09-05T10:27:27.654Z,22.30
2018-09-05T10:29:55.301Z,22.40
2018-09-05T10:32:23.523Z,22.60
2018-09-05T10:34:50.880Z,22.80
2018-09-05T10:37:18.153Z,22.80
2018-09-05T10:39:45.479Z,22.80
2018-09-05T10:42:12.842Z,22.80
2018-09-05T10:44:40.298Z,22.90
2018-09-05T10:47:07.614Z,23.00
2018-09-05T10:49:35.978Z,23.10
2018-09-05T10:52:05.627Z,23.20
2018-09-05T10:54:32.988Z,23.30
2018-09-05T10:57:01.327Z,23.30
2018-09-05T10:59:29.622Z,23.60
2018-09-05T11:01:57.320Z,23.50
2018-09-05T11:04:24.853Z,23.60
2018-09-05T11:06:52.094Z,23.70
2018-09-05T11:09:19.370Z,23.50
2018-09-05T11:11:46.602Z,23.10
2018-09-05T11:14:13.926Z,23.10
2018-09-05T11:16:41.314Z,23.30
2018-09-05T11:19:09.162Z,23.20
2018-09-05T11:21:36.430Z,23.20
2018-09-05T11:24:03.710Z,23.40
2018-09-05T11:26:31.115Z,23.60
2018-09-05T11:28:59.569Z,23.60
2018-09-05T11:31:26.830Z,23.30
2018-09-05T11:33:54.042Z,23.00
2018-09-05T11:36:21.887Z,23.00
2018-09-05T11:38:49.448Z,23.20
2018-09-05T11:41:16.674Z,23.40
2018-09-05T11:43:43.959Z,23.60
2018-09-05T11:46:11.175Z,23.60
2018-09-05T11:48:38.688Z,23.70
2018-09-05T11:51:05.960Z,23.90
2018-09-05T11:53:33.195Z,24.00
2018-09-05T11:56:00.498Z,24.10
2018-09-05T11:58:27.733Z,24.30
2018-09-05T12:00:55.009Z,24.40
2018-09-05T12:03:22.278Z,24.50
2018-09-05T12:05:49.538Z,24.50
2018-09-05T12:08:17.156Z,24.50
2018-09-05T12:10:45.581Z,24.60
2018-09-05T12:13:12.920Z,24.60
2018-09-05T12:15:40.329Z,24.70
2018-09-05T12:18:07.567Z,24.90
2018-09-05T12:20:35.103Z,24.90
2018-09-05T12:23:02.326Z,25.00
2018-09-05T12:25:29.631Z,25.00
2018-09-05T12:27:56.857Z,25.20
2018-09-05T12:30:24.130Z,25.40
2018-09-05T12:32:51.549Z,25.80
2018-09-05T12:35:18.899Z,26.70
2018-09-05T12:37:46.122Z,27.60
2018-09-05T12:40:13.394Z,28.80
2018-09-05T12:42:40.644Z,30.50
2018-09-05T12:45:07.996Z,31.50
2018-09-05T12:47:35.300Z,32.10
2018-09-05T12:50:02.555Z,31.70
2018-09-05T12:52:29.810Z,32.30
2018-09-05T12:54:57.052Z,32.40
2018-09-05T12:57:24.386Z,33.50
2018-09-05T12:59:51.599Z,35.20
2018-09-05T13:02:19.963Z,35.90
2018-09-05T13:04:47.298Z,36.30
2018-09-05T13:07:14.538Z,36.70
2018-09-05T13:09:41.803Z,37.50
2018-09-05T13:12:09.090Z,37.70
2018-09-05T13:14:37.408Z,37.70
2018-09-05T13:17:04.724Z,37.30
2018-09-05T13:19:32.063Z,37.90
2018-09-05T13:21:59.344Z,37.90
2018-09-05T13:24:26.611Z,37.70
2018-09-05T13:26:54.198Z,37.60
2018-09-05T13:29:21.585Z,37.00
2018-09-05T13:31:48.823Z,37.60
2018-09-05T13:34:16.091Z,37.80
2018-09-05T13:36:43.338Z,37.00
2018-09-05T13:39:11.146Z,37.30
2018-09-05T13:41:38.502Z,37.30
2018-09-05T13:44:06.255Z,37.60
2018-09-05T13:46:33.546Z,37.50
2018-09-05T13:49:00.811Z,38.40
2018-09-05T13:51:28.058Z,38.60
2018-09-05T13:53:55.370Z,38.70
2018-09-05T13:56:22.811Z,39.00
2018-09-05T13:58:50.119Z,39.10
2018-09-05T14:01:17.359Z,39.40
2018-09-05T14:03:44.574Z,39.40
2018-09-05T14:06:11.851Z,39.70
2018-09-05T14:08:39.115Z,39.40
2018-09-05T14:11:06.443Z,39.00
2018-09-05T14:13:33.798Z,39.50
2018-09-05T14:16:01.032Z,39.60
2018-09-05T14:18:28.285Z,39.40
2018-09-05T14:20:55.556Z,39.10
2018-09-05T14:23:22.737Z,39.50
2018-09-05T14:25:49.994Z,39.70
2018-09-05T14:28:17.259Z,39.00
2018-09-05T14:30:44.522Z,38.70
2018-09-05T14:33:11.844Z,38.60
2018-09-05T14:35:39.023Z,39.20
2018-09-05T14:38:06.495Z,39.70
2018-09-05T14:40:33.754Z,39.00
2018-09-05T14:43:01.051Z,39.30
2018-09-05T14:45:28.325Z,39.70
2018-09-05T14:47:55.607Z,38.90
2018-09-05T14:50:22.951Z,39.00
2018-09-05T14:52:50.186Z,38.60
2018-09-05T14:55:17.470Z,37.80
2018-09-05T14:57:44.741Z,37.50
2018-09-05T15:00:12.012Z,37.30
2018-09-05T15:02:39.282Z,37.50
2018-09-05T15:05:06.558Z,37.80
2018-09-05T15:07:33.916Z,38.20
2018-09-05T15:10:01.139Z,38.40
2018-09-05T15:12:28.415Z,38.10
2018-09-05T15:14:55.785Z,38.20
2018-09-05T15:17:23.079Z,37.80
2018-09-05T15:19:50.327Z,38.50
2018-09-05T15:22:17.591Z,38.60
2018-09-05T15:24:44.836Z,39.10
2018-09-05T15:27:12.232Z,39.00
2018-09-05T15:29:39.507Z,39.30
2018-09-05T15:32:06.774Z,38.90
2018-09-05T15:34:34.036Z,38.80
2018-09-05T15:37:01.603Z,38.50
2018-09-05T15:39:30.085Z,38.90
2018-09-05T15:41:57.272Z,38.80
2018-09-05T15:44:24.548Z,38.70
2018-09-05T15:46:51.847Z,38.60
2018-09-05T15:49:19.065Z,39.10
2018-09-05T15:51:46.348Z,38.40
2018-09-05T15:54:13.593Z,38.40
2018-09-05T15:56:40.893Z,38.20
2018-09-05T15:59:08.104Z,37.80
2018-09-05T16:01:35.439Z,38.00
2018-09-05T16:04:02.803Z,37.50
2018-09-05T16:06:30.135Z,37.00
2018-09-05T16:08:57.407Z,36.80
2018-09-05T16:11:24.660Z,36.90
2018-09-05T16:13:52.138Z,37.00
2018-09-05T16:16:19.392Z,37.40
2018-09-05T16:19:01.392Z,37.40
2018-09-05T16:21:28.631Z,37.60
2018-09-05T16:23:55.899Z,37.40
2018-09-05T16:26:23.183Z,37.00
2018-09-05T16:28:50.436Z,36.70
2018-09-05T16:31:17.786Z,36.50
2018-09-05T16:33:45.098Z,36.60
2018-09-05T16:36:12.463Z,36.40
2018-09-05T16:38:39.819Z,36.70
2018-09-05T16:41:07.174Z,36.30
2018-09-05T16:43:34.467Z,36.00
2018-09-05T16:46:01.788Z,35.90
2018-09-05T16:48:29.139Z,35.80
2018-09-05T16:50:56.466Z,35.80
2018-09-05T16:53:23.742Z,35.70
2018-09-05T16:55:51.119Z,35.20
2018-09-05T16:58:18.355Z,34.90
2018-09-05T17:00:47.779Z,34.80
2018-09-05T17:03:15.209Z,34.50
2018-09-05T17:05:42.518Z,34.40
2018-09-05T17:08:09.795Z,33.80
2018-09-05T17:10:37.090Z,33.20
2018-09-05T17:13:04.435Z,32.30
2018-09-05T17:15:31.776Z,31.70
2018-09-05T17:17:59.117Z,31.20
2018-09-05T17:20:26.459Z,30.70
2018-09-05T17:22:55.015Z,30.20
2018-09-05T17:25:22.603Z,29.80
2018-09-05T17:27:49.902Z,29.30
2018-09-05T17:30:17.234Z,29.00
2018-09-05T17:32:44.678Z,28.70
2018-09-05T17:35:12.281Z,28.40
2018-09-05T17:37:39.563Z,28.20
2018-09-05T17:40:06.979Z,27.80
2018-09-05T17:42:34.245Z,27.40
2018-09-05T17:45:01.735Z,27.10
2018-09-05T17:47:28.968Z,26.80
2018-09-05T17:49:56.250Z,26.60
2018-09-05T17:52:23.499Z,26.30
2018-09-05T17:54:51.706Z,26.10
2018-09-05T17:57:20.110Z,25.90
2018-09-05T17:59:47.350Z,25.70
2018-09-05T18:02:15.735Z,25.50
2018-09-05T18:04:43.056Z,25.30
2018-09-05T18:07:10.250Z,25.00
2018-09-05T18:09:37.618Z,24.70
2018-09-05T18:12:06.903Z,24.50
2018-09-05T18:14:34.173Z,24.30
2018-09-05T18:17:01.666Z,24.00
2018-09-05T18:19:29.028Z,23.80
2018-09-05T18:22:02.246Z,23.40
2018-09-05T18:24:29.571Z,23.10
2018-09-05T18:26:57.110Z,22.70
2018-09-05T18:29:24.359Z,22.70
2018-09-05T18:31:51.614Z,22.60
2018-09-05T18:34:18.924Z,22.50
2018-09-05T18:36:46.389Z,22.40
2018-09-05T18:39:13.737Z,22.20
2018-09-05T18:41:41.054Z,22.00
2018-09-05T18:44:08.363Z,21.90
2018-09-05T18:46:35.816Z,21.80
2018-09-05T18:49:03.340Z,21.70
2018-09-05T18:51:30.699Z,21.50
2018-09-05T18:53:57.979Z,21.40
2018-09-05T18:56:25.415Z,21.30
2018-09-05T18:58:52.788Z,21.10
2018-09-05T19:01:20.154Z,21.00
2018-09-05T19:03:47.387Z,20.90
2018-09-05T19:06:14.731Z,20.80
2018-09-05T19:08:42.103Z,20.60
2018-09-05T19:11:09.564Z,20.50
2018-09-05T19:13:36.979Z,20.40
2018-09-05T19:16:04.753Z,20.30
2018-09-05T19:18:32.213Z,20.20
2018-09-05T19:20:59.390Z,20.20
2018-09-05T19:23:26.679Z,20.10
2018-09-05T19:25:53.935Z,20.00
2018-09-05T19:28:21.218Z,20.00
2018-09-05T19:30:48.451Z,19.80
2018-09-05T19:33:15.734Z,19.60
2018-09-05T19:35:42.986Z,19.50
2018-09-05T19:38:10.258Z,19.50
2018-09-05T19:40:37.478Z,19.50
2018-09-05T19:43:04.872Z,19.40
2018-09-05T19:45:32.133Z,19.30
2018-09-05T19:47:59.499Z,19.30
2018-09-05T19:50:26.763Z,19.20
2018-09-05T19:52:54.019Z,19.20
2018-09-05T19:55:21.425Z,19.10
2018-09-05T19:57:48.658Z,19.10
2018-09-05T20:00:16.677Z,19.10
2018-09-05T20:02:44.429Z,19.00
2018-09-05T20:05:11.975Z,19.00
2018-09-05T20:07:39.603Z,18.90
2018-09-05T20:10:07.265Z,18.90
2018-09-05T20:12:34.855Z,18.80
2018-09-05T20:15:03.244Z,18.80
2018-09-05T20:17:30.679Z,18.80
2018-09-05T20:19:57.946Z,18.80
2018-09-05T20:22:25.344Z,18.70
2018-09-05T20:24:52.756Z,18.70
2018-09-05T20:27:20.082Z,18.70
2018-09-05T20:29:47.339Z,18.70
2018-09-05T20:32:14.825Z,18.60
2018-09-05T20:34:42.212Z,18.60
2018-09-05T20:37:10.256Z,18.50
2018-09-05T20:39:37.747Z,18.50
2018-09-05T20:42:05.135Z,18.40
2018-09-05T20:44:33.985Z,18.40
2018-09-05T20:47:01.571Z,18.40
2018-09-05T20:49:30.000Z,18.30
2018-09-05T20:51:58.070Z,18.20
2018-09-05T20:54:25.578Z,18.20
2018-09-05T20:56:53.945Z,18.20
2018-09-05T20:59:21.346Z,18.10
2018-09-05T21:01:48.653Z,18.10
2018-09-05T21:04:15.879Z,18.00
2018-09-05T21:06:43.163Z,18.00
2018-09-05T21:09:10.421Z,18.00
2018-09-05T21:11:37.737Z,18.00
2018-09-05T21:14:05.080Z,17.90
2018-09-05T21:16:33.761Z,17.90
2018-09-05T21:19:00.984Z,17.90
2018-09-05T21:21:28.415Z,17.80
2018-09-05T21:23:55.681Z,17.80
2018-09-05T21:26:23.107Z,17.70
2018-09-05T21:28:50.403Z,17.60
2018-09-05T21:31:17.732Z,17.50
2018-09-05T21:33:45.140Z,17.50
2018-09-05T21:36:12.477Z,17.40
2018-09-05T21:38:39.766Z,17.40
2018-09-05T21:41:06.999Z,17.40
2018-09-05T21:43:34.468Z,17.40
2018-09-05T21:46:01.786Z,17.20
2018-09-05T21:48:29.055Z,17.20
2018-09-05T21:50:56.299Z,17.20
2018-09-05T21:53:23.538Z,17.20
2018-09-05T21:55:50.872Z,17.10
2018-09-05T21:58:19.107Z,17.00
2018-09-05T22:00:47.239Z,16.90
2018-09-05T22:03:14.602Z,16.80
2018-09-05T22:05:42.079Z,16.90
2018-09-05T22:08:09.389Z,16.90
2018-09-05T22:10:36.695Z,16.90
2018-09-05T22:13:05.047Z,16.90
2018-09-05T22:15:37.954Z,16.90
2018-09-05T22:18:05.652Z,16.80
2018-09-05T22:20:32.904Z,16.90
2018-09-05T22:23:00.161Z,16.90
2018-09-05T22:25:27.434Z,16.90
2018-09-05T22:27:57.227Z,16.90
2018-09-05T22:30:24.531Z,16.90
2018-09-05T22:32:51.767Z,16.80
2018-09-05T22:35:19.038Z,16.80
2018-09-05T22:37:46.310Z,16.80
2018-09-05T22:40:13.564Z,16.80
2018-09-05T22:42:54.279Z,16.80
2018-09-05T22:46:36.083Z,16.80
2018-09-05T22:51:25.485Z,16.80
2018-09-05T22:55:24.055Z,16.70
2018-09-05T22:58:15.328Z,16.60
2018-09-05T23:00:54.207Z,16.60
2018-09-05T23:03:38.401Z,16.50
2018-09-05T23:07:17.124Z,16.40
2018-09-05T23:09:56.484Z,16.40
2018-09-05T23:12:35.565Z,16.40
2018-09-05T23:15:14.596Z,16.40
2018-09-05T23:17:56.099Z,16.40
2018-09-05T23:20:42.702Z,16.50
2018-09-05T23:23:21.922Z,16.50
2018-09-05T23:25:54.344Z,16.60
2018-09-05T23:28:22.759Z,16.70
2018-09-05T23:30:50.028Z,16.70
2018-09-05T23:33:17.291Z,16.70
2018-09-05T23:35:44.535Z,16.70
2018-09-05T23:38:11.873Z,16.70
2018-09-05T23:40:39.207Z,16.80
2018-09-05T23:43:06.490Z,16.80
2018-09-05T23:45:33.706Z,16.80
2018-09-05T23:48:01.071Z,16.90
2018-09-05T23:50:28.432Z,16.80
2018-09-05T23:52:55.703Z,16.90
2018-09-05T23:55:22.967Z,16.80
2018-09-05T23:57:50.231Z,16.90
